PWSweather.com
Personal Weather Stations
Station Observations
THRCKWTHR1
Aveley, EssexGB RM154EL

AveleyEssexGB RM154EL

Lat: 51.5000552, Lon: 0.2501753000000235

Elevation: 98.5

Station Type: Oregon Scientific WMR88

www.facebook.com/thurrockweather

High Low Average
Temperature 60.4°F15.8°C 42.6°F5.9°C 51.7°F10.9°C
Dew Point 49.3°F9.6°C 37.5°F3.1°C 44.4°F6.9°C
Winds 12.0 mph 19.3 kmh Calm Calm 3.0 mph W4.8 kmh W
Wind Gusts 14.7 mph23.7 kmh 1.9 mph3.1 kmh 6.0 mph9.7 kmh
Humidity 84% 59% 77%
Pressure 30.57 in1035.2 mb 30.36 in1028.1 mb -
Precipitation 0.00 in0.0 mm - -
Hour Temp Dew Point Humidity Winds Wind Gusts Pressure Precip Precip Rate Daily Precip Total
12:00 AM 42.6°F5.9°C 37.5°F3.1°C 82% 1.1 mph SW1.8 kmh SW 3.3 mph5.3 kmh 30.57 in1035.2 mb 0.00 in0.0 mm 0.00 in0.0 mm 0.00 in0.0 mm
12:05 AM 42.6°F5.9°C 37.5°F3.1°C 82% Calm Calm 2.5 mph4.0 kmh 30.57 in1035.2 mb 0.00 in0.0 mm 0.00 in0.0 mm 0.00 in0.0 mm
12:10 AM 42.8°F6.0°C 37.7°F3.2°C 82% 2.5 mph SSW4.0 kmh SSW 3.5 mph5.6 kmh 30.57 in1035.2 mb 0.00 in0.0 mm 0.00 in0.0 mm 0.00 in0.0 mm
12:15 AM 43.0°F6.1°C 37.9°F3.3°C 82% 1.6 mph SW2.6 kmh SW 3.5 mph5.6 kmh 30.57 in1035.2 mb 0.00 in0.0 mm 0.00 in0.0 mm 0.00 in0.0 mm
12:20 AM 43.3°F6.3°C 38.5°F3.6°C 83% 2.7 mph SW4.3 kmh SW 3.8 mph6.1 kmh 30.57 in1035.2 mb 0.00 in0.0 mm 0.00 in0.0 mm 0.00 in0.0 mm
12:25 AM 43.3°F6.3°C 38.2°F3.4°C 82% 3.5 mph SW5.6 kmh SW 4.1 mph6.6 kmh 30.57 in1035.2 mb 0.00 in0.0 mm 0.00 in0.0 mm 0.00 in0.0 mm
12:30 AM 43.5°F6.4°C 38.4°F3.6°C 82% 1.9 mph SW3.1 kmh SW 4.9 mph7.9 kmh 30.54 in1034.2 mb 0.00 in0.0 mm 0.00 in0.0 mm 0.00 in0.0 mm
12:35 AM 43.5°F6.4°C 38.4°F3.6°C 82% 1.4 mph SW2.3 kmh SW 4.9 mph7.9 kmh 30.54 in1034.2 mb 0.00 in0.0 mm 0.00 in0.0 mm 0.00 in0.0 mm
12:40 AM 43.5°F6.4°C 38.4°F3.6°C 82% 1.9 mph SW3.1 kmh SW 3.8 mph6.1 kmh 30.54 in1034.2 mb 0.00 in0.0 mm 0.00 in0.0 mm 0.00 in0.0 mm
12:45 AM 43.5°F6.4°C 38.4°F3.6°C 82% 1.4 mph SW2.3 kmh SW 3.8 mph6.1 kmh 30.54 in1034.2 mb 0.00 in0.0 mm 0.00 in0.0 mm 0.00 in0.0 mm
12:50 AM 43.5°F6.4°C 38.4°F3.6°C 82% 1.6 mph W2.6 kmh W 1.9 mph3.1 kmh 30.54 in1034.2 mb 0.00 in0.0 mm 0.00 in0.0 mm 0.00 in0.0 mm
12:55 AM 43.7°F6.5°C 38.6°F3.7°C 82% Calm Calm 2.5 mph4.0 kmh 30.54 in1034.2 mb 0.00 in0.0 mm 0.00 in0.0 mm 0.00 in0.0 mm
01:00 AM 43.7°F6.5°C 38.6°F3.7°C 82% Calm Calm 4.6 mph7.4 kmh 30.54 in1034.2 mb 0.00 in0.0 mm 0.00 in0.0 mm 0.00 in0.0 mm
01:05 AM 43.7°F6.5°C 38.6°F3.7°C 82% 1.9 mph SW3.1 kmh SW 4.6 mph7.4 kmh 30.54 in1034.2 mb 0.00 in0.0 mm 0.00 in0.0 mm 0.00 in0.0 mm
01:10 AM 43.7°F6.5°C 38.6°F3.7°C 82% Calm Calm 1.9 mph3.1 kmh 30.54 in1034.2 mb 0.00 in0.0 mm 0.00 in0.0 mm 0.00 in0.0 mm
01:15 AM 43.7°F6.5°C 38.6°F3.7°C 82% 2.5 mph SSW4.0 kmh SSW 2.7 mph4.3 kmh 30.54 in1034.2 mb 0.00 in0.0 mm 0.00 in0.0 mm 0.00 in0.0 mm
01:20 AM 43.9°F6.6°C 38.7°F3.7°C 82% 1.9 mph S3.1 kmh S 3.3 mph5.3 kmh 30.54 in1034.2 mb 0.00 in0.0 mm 0.00 in0.0 mm 0.00 in0.0 mm
01:25 AM 43.9°F6.6°C 38.7°F3.7°C 82% 1.1 mph SSE1.8 kmh SSE 3.3 mph5.3 kmh 30.54 in1034.2 mb 0.00 in0.0 mm 0.00 in0.0 mm 0.00 in0.0 mm
01:30 AM 43.7°F6.5°C 38.6°F3.7°C 82% 1.4 mph SW2.3 kmh SW 3.8 mph6.1 kmh 30.54 in1034.2 mb 0.00 in0.0 mm 0.00 in0.0 mm 0.00 in0.0 mm
01:35 AM 43.9°F6.6°C 38.7°F3.7°C 82% 1.4 mph WSW2.3 kmh WSW 3.8 mph6.1 kmh 30.54 in1034.2 mb 0.00 in0.0 mm 0.00 in0.0 mm 0.00 in0.0 mm
01:40 AM 43.9°F6.6°C 38.7°F3.7°C 82% 1.6 mph SW2.6 kmh SW 3.3 mph5.3 kmh 30.54 in1034.2 mb 0.00 in0.0 mm 0.00 in0.0 mm 0.00 in0.0 mm
01:45 AM 44.1°F6.7°C 38.9°F3.8°C 82% 1.1 mph W1.8 kmh W 4.4 mph7.1 kmh 30.51 in1033.2 mb 0.00 in0.0 mm 0.00 in0.0 mm 0.00 in0.0 mm
01:50 AM 44.2°F6.8°C 39.1°F3.9°C 82% 3.5 mph WSW5.6 kmh WSW 4.4 mph7.1 kmh 30.51 in1033.2 mb 0.00 in0.0 mm 0.00 in0.0 mm 0.00 in0.0 mm
01:55 AM 44.2°F6.8°C 39.4°F4.1°C 83% 1.6 mph SW2.6 kmh SW 4.4 mph7.1 kmh 30.51 in1033.2 mb 0.00 in0.0 mm 0.00 in0.0 mm 0.00 in0.0 mm
02:00 AM 44.4°F6.9°C 39.6°F4.2°C 83% 1.6 mph WSW2.6 kmh WSW 3.5 mph5.6 kmh 30.51 in1033.2 mb 0.00 in0.0 mm 0.00 in0.0 mm 0.00 in0.0 mm
02:05 AM 44.4°F6.9°C 39.6°F4.2°C 83% 1.4 mph WSW2.3 kmh WSW 3.5 mph5.6 kmh 30.51 in1033.2 mb 0.00 in0.0 mm 0.00 in0.0 mm 0.00 in0.0 mm
02:10 AM 44.6°F7.0°C 39.4°F4.1°C 82% 1.1 mph WSW1.8 kmh WSW 3.3 mph5.3 kmh 30.51 in1033.2 mb 0.00 in0.0 mm 0.00 in0.0 mm 0.00 in0.0 mm
02:15 AM 44.6°F7.0°C 39.4°F4.1°C 82% 1.4 mph SW2.3 kmh SW 3.3 mph5.3 kmh 30.51 in1033.2 mb 0.00 in0.0 mm 0.00 in0.0 mm 0.00 in0.0 mm
02:20 AM 44.8°F7.1°C 39.6°F4.2°C 82% 1.9 mph SW3.1 kmh SW 3.0 mph4.8 kmh 30.51 in1033.2 mb 0.00 in0.0 mm 0.00 in0.0 mm 0.00 in0.0 mm
02:25 AM 44.8°F7.1°C 39.6°F4.2°C 82% 3.3 mph SSE5.3 kmh SSE 3.3 mph5.3 kmh 30.51 in1033.2 mb 0.00 in0.0 mm 0.00 in0.0 mm 0.00 in0.0 mm
02:30 AM 44.8°F7.1°C 39.6°F4.2°C 82% 1.9 mph SSE3.1 kmh SSE 3.5 mph5.6 kmh 30.51 in1033.2 mb 0.00 in0.0 mm 0.00 in0.0 mm 0.00 in0.0 mm
02:35 AM 44.8°F7.1°C 39.6°F4.2°C 82% 2.7 mph WSW4.3 kmh WSW 3.5 mph5.6 kmh 30.51 in1033.2 mb 0.00 in0.0 mm 0.00 in0.0 mm 0.00 in0.0 mm
02:40 AM 44.8°F7.1°C 39.6°F4.2°C 82% 2.5 mph SW4.0 kmh SW 3.3 mph5.3 kmh 30.51 in1033.2 mb 0.00 in0.0 mm 0.00 in0.0 mm 0.00 in0.0 mm
02:45 AM 44.8°F7.1°C 39.6°F4.2°C 82% 3.0 mph SSW4.8 kmh SSW 3.5 mph5.6 kmh 30.51 in1033.2 mb 0.00 in0.0 mm 0.00 in0.0 mm 0.00 in0.0 mm
02:50 AM 44.8°F7.1°C 39.6°F4.2°C 82% 6.8 mph SW10.9 kmh SW 6.8 mph10.9 kmh 30.51 in1033.2 mb 0.00 in0.0 mm 0.00 in0.0 mm 0.00 in0.0 mm
02:55 AM 44.8°F7.1°C 39.6°F4.2°C 82% 3.0 mph SW4.8 kmh SW 6.8 mph10.9 kmh 30.51 in1033.2 mb 0.00 in0.0 mm 0.00 in0.0 mm 0.00 in0.0 mm
03:00 AM 44.8°F7.1°C 39.6°F4.2°C 82% 3.0 mph WNW4.8 kmh WNW 6.8 mph10.9 kmh 30.48 in1032.2 mb 0.00 in0.0 mm 0.00 in0.0 mm 0.00 in0.0 mm
03:05 AM 44.6°F7.0°C 39.4°F4.1°C 82% 1.9 mph NW3.1 kmh NW 4.4 mph7.1 kmh 30.48 in1032.2 mb 0.00 in0.0 mm 0.00 in0.0 mm 0.00 in0.0 mm
03:10 AM 44.6°F7.0°C 39.4°F4.1°C 82% 3.0 mph WSW4.8 kmh WSW 3.0 mph4.8 kmh 30.48 in1032.2 mb 0.00 in0.0 mm 0.00 in0.0 mm 0.00 in0.0 mm
03:15 AM 44.6°F7.0°C 39.4°F4.1°C 82% 4.6 mph WSW7.4 kmh WSW 4.6 mph7.4 kmh 30.48 in1032.2 mb 0.00 in0.0 mm 0.00 in0.0 mm 0.00 in0.0 mm
03:20 AM 44.4°F6.9°C 39.6°F4.2°C 83% 1.6 mph WNW2.6 kmh WNW 4.6 mph7.4 kmh 30.48 in1032.2 mb 0.00 in0.0 mm 0.00 in0.0 mm 0.00 in0.0 mm
03:25 AM 44.4°F6.9°C 39.6°F4.2°C 83% 3.8 mph NW6.1 kmh NW 4.1 mph6.6 kmh 30.48 in1032.2 mb 0.00 in0.0 mm 0.00 in0.0 mm 0.00 in0.0 mm
03:30 AM 44.2°F6.8°C 39.4°F4.1°C 83% 3.5 mph W5.6 kmh W 4.1 mph6.6 kmh 30.48 in1032.2 mb 0.00 in0.0 mm 0.00 in0.0 mm 0.00 in0.0 mm
03:35 AM 44.2°F6.8°C 39.4°F4.1°C 83% 2.5 mph WSW4.0 kmh WSW 3.8 mph6.1 kmh 30.48 in1032.2 mb 0.00 in0.0 mm 0.00 in0.0 mm 0.00 in0.0 mm
03:40 AM 44.2°F6.8°C 39.4°F4.1°C 83% 1.9 mph WSW3.1 kmh WSW 3.3 mph5.3 kmh 30.48 in1032.2 mb 0.00 in0.0 mm 0.00 in0.0 mm 0.00 in0.0 mm
03:45 AM 44.2°F6.8°C 39.4°F4.1°C 83% 1.6 mph W2.6 kmh W 3.5 mph5.6 kmh 30.48 in1032.2 mb 0.00 in0.0 mm 0.00 in0.0 mm 0.00 in0.0 mm
03:50 AM 44.1°F6.7°C 39.2°F4.0°C 83% 1.9 mph NW3.1 kmh NW 5.2 mph8.4 kmh 30.48 in1032.2 mb 0.00 in0.0 mm 0.00 in0.0 mm 0.00 in0.0 mm
03:55 AM 44.1°F6.7°C 39.2°F4.0°C 83% 3.0 mph WNW4.8 kmh WNW 5.2 mph8.4 kmh 30.48 in1032.2 mb 0.00 in0.0 mm 0.00 in0.0 mm 0.00 in0.0 mm
04:00 AM 44.1°F6.7°C 39.2°F4.0°C 83% 3.8 mph W6.1 kmh W 6.5 mph10.5 kmh 30.48 in1032.2 mb 0.00 in0.0 mm 0.00 in0.0 mm 0.00 in0.0 mm
04:05 AM 44.1°F6.7°C 39.2°F4.0°C 83% 1.9 mph W3.1 kmh W 6.5 mph10.5 kmh 30.48 in1032.2 mb 0.00 in0.0 mm 0.00 in0.0 mm 0.00 in0.0 mm
04:10 AM 44.1°F6.7°C 39.2°F4.0°C 83% 2.5 mph WSW4.0 kmh WSW 5.2 mph8.4 kmh 30.48 in1032.2 mb 0.00 in0.0 mm 0.00 in0.0 mm 0.00 in0.0 mm
04:15 AM 44.1°F6.7°C 39.2°F4.0°C 83% 3.5 mph SW5.6 kmh SW 5.2 mph8.4 kmh 30.48 in1032.2 mb 0.00 in0.0 mm 0.00 in0.0 mm 0.00 in0.0 mm
04:20 AM 44.1°F6.7°C 39.2°F4.0°C 83% 1.1 mph SW1.8 kmh SW 3.5 mph5.6 kmh 30.48 in1032.2 mb 0.00 in0.0 mm 0.00 in0.0 mm 0.00 in0.0 mm
04:25 AM 44.1°F6.7°C 39.2°F4.0°C 83% 2.7 mph NW4.3 kmh NW 3.8 mph6.1 kmh 30.48 in1032.2 mb 0.00 in0.0 mm 0.00 in0.0 mm 0.00 in0.0 mm
04:30 AM 44.1°F6.7°C 39.2°F4.0°C 83% 1.6 mph SSW2.6 kmh SSW 3.8 mph6.1 kmh 30.48 in1032.2 mb 0.00 in0.0 mm 0.00 in0.0 mm 0.00 in0.0 mm
04:35 AM 43.9°F6.6°C 39.1°F3.9°C 83% 2.7 mph SSW4.3 kmh SSW 3.3 mph5.3 kmh 30.48 in1032.2 mb 0.00 in0.0 mm 0.00 in0.0 mm 0.00 in0.0 mm
04:40 AM 43.9°F6.6°C 39.1°F3.9°C 83% 3.0 mph SW4.8 kmh SW 3.5 mph5.6 kmh 30.48 in1032.2 mb 0.00 in0.0 mm 0.00 in0.0 mm 0.00 in0.0 mm
04:45 AM 43.9°F6.6°C 39.1°F3.9°C 83% 1.6 mph SW2.6 kmh SW 3.5 mph5.6 kmh 30.48 in1032.2 mb 0.00 in0.0 mm 0.00 in0.0 mm 0.00 in0.0 mm
04:50 AM 43.9°F6.6°C 39.1°F3.9°C 83% 3.3 mph S5.3 kmh S 3.3 mph5.3 kmh 30.48 in1032.2 mb 0.00 in0.0 mm 0.00 in0.0 mm 0.00 in0.0 mm
04:55 AM 43.9°F6.6°C 39.1°F3.9°C 83% 1.9 mph S3.1 kmh S 3.3 mph5.3 kmh 30.48 in1032.2 mb 0.00 in0.0 mm 0.00 in0.0 mm 0.00 in0.0 mm
05:00 AM 43.9°F6.6°C 39.1°F3.9°C 83% 1.1 mph SSW1.8 kmh SSW 4.1 mph6.6 kmh 30.48 in1032.2 mb 0.00 in0.0 mm 0.00 in0.0 mm 0.00 in0.0 mm
05:05 AM 43.9°F6.6°C 39.1°F3.9°C 83% 2.5 mph SSW4.0 kmh SSW 5.2 mph8.4 kmh 30.48 in1032.2 mb 0.00 in0.0 mm 0.00 in0.0 mm 0.00 in0.0 mm
05:10 AM 43.9°F6.6°C 39.4°F4.1°C 84% 3.3 mph SW5.3 kmh SW 5.2 mph8.4 kmh 30.48 in1032.2 mb 0.00 in0.0 mm 0.00 in0.0 mm 0.00 in0.0 mm
05:15 AM 44.1°F6.7°C 39.5°F4.2°C 84% 3.0 mph WSW4.8 kmh WSW 4.4 mph7.1 kmh 30.45 in1031.2 mb 0.00 in0.0 mm 0.00 in0.0 mm 0.00 in0.0 mm
05:20 AM 44.1°F6.7°C 39.5°F4.2°C 84% 3.3 mph WSW5.3 kmh WSW 4.4 mph7.1 kmh 30.45 in1031.2 mb 0.00 in0.0 mm 0.00 in0.0 mm 0.00 in0.0 mm
05:25 AM 44.1°F6.7°C 39.2°F4.0°C 83% 1.9 mph SSW3.1 kmh SSW 4.1 mph6.6 kmh 30.45 in1031.2 mb 0.00 in0.0 mm 0.00 in0.0 mm 0.00 in0.0 mm
05:30 AM 44.1°F6.7°C 39.2°F4.0°C 83% 2.7 mph WSW4.3 kmh WSW 4.1 mph6.6 kmh 30.45 in1031.2 mb 0.00 in0.0 mm 0.00 in0.0 mm 0.00 in0.0 mm
05:35 AM 44.1°F6.7°C 39.2°F4.0°C 83% 2.5 mph W4.0 kmh W 3.3 mph5.3 kmh 30.45 in1031.2 mb 0.00 in0.0 mm 0.00 in0.0 mm 0.00 in0.0 mm
05:40 AM 44.1°F6.7°C 39.2°F4.0°C 83% 1.9 mph SSW3.1 kmh SSW 4.1 mph6.6 kmh 30.45 in1031.2 mb 0.00 in0.0 mm 0.00 in0.0 mm 0.00 in0.0 mm
05:45 AM 44.1°F6.7°C 39.2°F4.0°C 83% 2.5 mph S4.0 kmh S 4.9 mph7.9 kmh 30.45 in1031.2 mb 0.00 in0.0 mm 0.00 in0.0 mm 0.00 in0.0 mm
05:50 AM 44.2°F6.8°C 39.7°F4.3°C 84% 2.5 mph SSW4.0 kmh SSW 4.9 mph7.9 kmh 30.45 in1031.2 mb 0.00 in0.0 mm 0.00 in0.0 mm 0.00 in0.0 mm
05:55 AM 44.2°F6.8°C 39.4°F4.1°C 83% 3.0 mph SW4.8 kmh SW 4.4 mph7.1 kmh 30.45 in1031.2 mb 0.00 in0.0 mm 0.00 in0.0 mm 0.00 in0.0 mm
06:00 AM 44.1°F6.7°C 39.5°F4.2°C 84% 3.5 mph SSW5.6 kmh SSW 4.4 mph7.1 kmh 30.45 in1031.2 mb 0.00 in0.0 mm 0.00 in0.0 mm 0.00 in0.0 mm
06:05 AM 44.2°F6.8°C 39.7°F4.3°C 84% 1.9 mph S3.1 kmh S 5.2 mph8.4 kmh 30.45 in1031.2 mb 0.00 in0.0 mm 0.00 in0.0 mm 0.00 in0.0 mm
06:10 AM 44.2°F6.8°C 39.7°F4.3°C 84% 1.9 mph S3.1 kmh S 5.2 mph8.4 kmh 30.45 in1031.2 mb 0.00 in0.0 mm 0.00 in0.0 mm 0.00 in0.0 mm
06:15 AM 44.2°F6.8°C 39.7°F4.3°C 84% 3.5 mph SW5.6 kmh SW 3.8 mph6.1 kmh 30.45 in1031.2 mb 0.00 in0.0 mm 0.00 in0.0 mm 0.00 in0.0 mm
06:20 AM 44.4°F6.9°C 39.9°F4.4°C 84% 3.8 mph SW6.1 kmh SW 4.1 mph6.6 kmh 30.45 in1031.2 mb 0.00 in0.0 mm 0.00 in0.0 mm 0.00 in0.0 mm
06:25 AM 44.4°F6.9°C 39.9°F4.4°C 84% 5.2 mph WSW8.4 kmh WSW 7.6 mph12.2 kmh 30.45 in1031.2 mb 0.00 in0.0 mm 0.00 in0.0 mm 0.00 in0.0 mm
06:30 AM 44.4°F6.9°C 39.6°F4.2°C 83% 4.1 mph SW6.6 kmh SW 7.6 mph12.2 kmh 30.45 in1031.2 mb 0.00 in0.0 mm 0.00 in0.0 mm 0.00 in0.0 mm
06:35 AM 44.4°F6.9°C 39.6°F4.2°C 83% 3.3 mph SW5.3 kmh SW 4.1 mph6.6 kmh 30.45 in1031.2 mb 0.00 in0.0 mm 0.00 in0.0 mm 0.00 in0.0 mm
06:40 AM 44.2°F6.8°C 39.4°F4.1°C 83% 1.9 mph W3.1 kmh W 4.9 mph7.9 kmh 30.45 in1031.2 mb 0.00 in0.0 mm 0.00 in0.0 mm 0.00 in0.0 mm
06:45 AM 44.2°F6.8°C 39.4°F4.1°C 83% 3.8 mph W6.1 kmh W 6.0 mph9.7 kmh 30.45 in1031.2 mb 0.00 in0.0 mm 0.00 in0.0 mm 0.00 in0.0 mm
06:50 AM 44.2°F6.8°C 39.4°F4.1°C 83% 2.7 mph SW4.3 kmh SW 6.0 mph9.7 kmh 30.45 in1031.2 mb 0.00 in0.0 mm 0.00 in0.0 mm 0.00 in0.0 mm
06:55 AM 44.2°F6.8°C 39.4°F4.1°C 83% 1.9 mph S3.1 kmh S 4.6 mph7.4 kmh 30.45 in1031.2 mb 0.00 in0.0 mm 0.00 in0.0 mm 0.00 in0.0 mm
07:00 AM 44.4°F6.9°C 39.6°F4.2°C 83% 2.7 mph SSE4.3 kmh SSE 3.5 mph5.6 kmh 30.42 in1030.1 mb 0.00 in0.0 mm 0.00 in0.0 mm 0.00 in0.0 mm
07:05 AM 44.6°F7.0°C 39.8°F4.3°C 83% 1.9 mph SW3.1 kmh SW 4.1 mph6.6 kmh 30.42 in1030.1 mb 0.00 in0.0 mm 0.00 in0.0 mm 0.00 in0.0 mm
07:10 AM 44.6°F7.0°C 39.8°F4.3°C 83% 3.3 mph SW5.3 kmh SW 4.1 mph6.6 kmh 30.42 in1030.1 mb 0.00 in0.0 mm 0.00 in0.0 mm 0.00 in0.0 mm
07:15 AM 44.8°F7.1°C 39.9°F4.4°C 83% 2.5 mph W4.0 kmh W 6.5 mph10.5 kmh 30.42 in1030.1 mb 0.00 in0.0 mm 0.00 in0.0 mm 0.00 in0.0 mm
07:20 AM 44.8°F7.1°C 39.9°F4.4°C 83% 9.0 mph NW14.5 kmh NW 9.0 mph14.5 kmh 30.42 in1030.1 mb 0.00 in0.0 mm 0.00 in0.0 mm 0.00 in0.0 mm
07:25 AM 45.0°F7.2°C 40.1°F4.5°C 83% 1.6 mph WNW2.6 kmh WNW 9.0 mph14.5 kmh 30.42 in1030.1 mb 0.00 in0.0 mm 0.00 in0.0 mm 0.00 in0.0 mm
07:30 AM 45.1°F7.3°C 40.3°F4.6°C 83% 5.5 mph W8.9 kmh W 9.0 mph14.5 kmh 30.42 in1030.1 mb 0.00 in0.0 mm 0.00 in0.0 mm 0.00 in0.0 mm
07:35 AM 45.3°F7.4°C 40.5°F4.7°C 83% 3.8 mph SW6.1 kmh SW 5.7 mph9.2 kmh 30.42 in1030.1 mb 0.00 in0.0 mm 0.00 in0.0 mm 0.00 in0.0 mm
07:40 AM 45.7°F7.6°C 40.8°F4.9°C 83% 3.3 mph SW5.3 kmh SW 5.7 mph9.2 kmh 30.42 in1030.1 mb 0.00 in0.0 mm 0.00 in0.0 mm 0.00 in0.0 mm
07:45 AM 45.9°F7.7°C 41.0°F5.0°C 83% 3.3 mph SW5.3 kmh SW 5.7 mph9.2 kmh 30.42 in1030.1 mb 0.00 in0.0 mm 0.00 in0.0 mm 0.00 in0.0 mm
07:50 AM 46.0°F7.8°C 41.2°F5.1°C 83% 4.6 mph SW7.4 kmh SW 5.7 mph9.2 kmh 30.42 in1030.1 mb 0.00 in0.0 mm 0.00 in0.0 mm 0.00 in0.0 mm
07:55 AM 46.2°F7.9°C 41.3°F5.2°C 83% 3.5 mph W5.6 kmh W 4.6 mph7.4 kmh 30.42 in1030.1 mb 0.00 in0.0 mm 0.00 in0.0 mm 0.00 in0.0 mm
08:00 AM 46.4°F8.0°C 41.5°F5.3°C 83% 1.6 mph W2.6 kmh W 5.2 mph8.4 kmh 30.42 in1030.1 mb 0.00 in0.0 mm 0.00 in0.0 mm 0.00 in0.0 mm
08:05 AM 46.6°F8.1°C 41.7°F5.4°C 83% 3.0 mph WNW4.8 kmh WNW 5.2 mph8.4 kmh 30.42 in1030.1 mb 0.00 in0.0 mm 0.00 in0.0 mm 0.00 in0.0 mm
08:10 AM 46.8°F8.2°C 41.9°F5.5°C 83% 3.0 mph NW4.8 kmh NW 4.6 mph7.4 kmh 30.42 in1030.1 mb 0.00 in0.0 mm 0.00 in0.0 mm 0.00 in0.0 mm
08:15 AM 47.1°F8.4°C 42.2°F5.7°C 83% 1.6 mph SW2.6 kmh SW 4.6 mph7.4 kmh 30.42 in1030.1 mb 0.00 in0.0 mm 0.00 in0.0 mm 0.00 in0.0 mm
08:20 AM 47.1°F8.4°C 42.2°F5.7°C 83% 5.2 mph S8.4 kmh S 5.2 mph8.4 kmh 30.42 in1030.1 mb 0.00 in0.0 mm 0.00 in0.0 mm 0.00 in0.0 mm
08:25 AM 47.3°F8.5°C 42.4°F5.8°C 83% 2.5 mph S4.0 kmh S 5.2 mph8.4 kmh 30.42 in1030.1 mb 0.00 in0.0 mm 0.00 in0.0 mm 0.00 in0.0 mm
08:30 AM 47.7°F8.7°C 42.4°F5.8°C 82% 5.2 mph W8.4 kmh W 5.2 mph8.4 kmh 30.42 in1030.1 mb 0.00 in0.0 mm 0.00 in0.0 mm 0.00 in0.0 mm
08:35 AM 47.8°F8.8°C 42.6°F5.9°C 82% 3.8 mph W6.1 kmh W 5.2 mph8.4 kmh 30.42 in1030.1 mb 0.00 in0.0 mm 0.00 in0.0 mm 0.00 in0.0 mm
08:40 AM 48.2°F9.0°C 42.6°F5.9°C 81% 1.6 mph SW2.6 kmh SW 5.2 mph8.4 kmh 30.42 in1030.1 mb 0.00 in0.0 mm 0.00 in0.0 mm 0.00 in0.0 mm
08:45 AM 48.4°F9.1°C 42.8°F6.0°C 81% 1.9 mph W3.1 kmh W 4.1 mph6.6 kmh 30.42 in1030.1 mb 0.00 in0.0 mm 0.00 in0.0 mm 0.00 in0.0 mm
08:50 AM 48.6°F9.2°C 43.0°F6.1°C 81% 1.9 mph WSW3.1 kmh WSW 4.1 mph6.6 kmh 30.42 in1030.1 mb 0.00 in0.0 mm 0.00 in0.0 mm 0.00 in0.0 mm
08:55 AM 48.7°F9.3°C 43.2°F6.2°C 81% 1.6 mph WSW2.6 kmh WSW 4.4 mph7.1 kmh 30.42 in1030.1 mb 0.00 in0.0 mm 0.00 in0.0 mm 0.00 in0.0 mm
09:00 AM 49.1°F9.5°C 43.5°F6.4°C 81% 1.6 mph WSW2.6 kmh WSW 4.4 mph7.1 kmh 30.42 in1030.1 mb 0.00 in0.0 mm 0.00 in0.0 mm 0.00 in0.0 mm
09:05 AM 49.3°F9.6°C 43.7°F6.5°C 81% 1.4 mph SW2.3 kmh SW 2.5 mph4.0 kmh 30.42 in1030.1 mb 0.00 in0.0 mm 0.00 in0.0 mm 0.00 in0.0 mm
09:10 AM 49.5°F9.7°C 43.9°F6.6°C 81% 3.3 mph SW5.3 kmh SW 3.5 mph5.6 kmh 30.42 in1030.1 mb 0.00 in0.0 mm 0.00 in0.0 mm 0.00 in0.0 mm
09:15 AM 49.5°F9.7°C 43.9°F6.6°C 81% 3.5 mph WSW5.6 kmh WSW 4.4 mph7.1 kmh 30.42 in1030.1 mb 0.00 in0.0 mm 0.00 in0.0 mm 0.00 in0.0 mm
09:20 AM 49.6°F9.8°C 44.0°F6.7°C 81% Calm Calm 5.7 mph9.2 kmh 30.42 in1030.1 mb 0.00 in0.0 mm 0.00 in0.0 mm 0.00 in0.0 mm
09:25 AM 50.0°F10.0°C 44.1°F6.7°C 80% 4.1 mph W6.6 kmh W 5.7 mph9.2 kmh 30.42 in1030.1 mb 0.00 in0.0 mm 0.00 in0.0 mm 0.00 in0.0 mm
09:30 AM 50.4°F10.2°C 44.4°F6.9°C 80% 1.6 mph W2.6 kmh W 4.9 mph7.9 kmh 30.42 in1030.1 mb 0.00 in0.0 mm 0.00 in0.0 mm 0.00 in0.0 mm
09:35 AM 50.7°F10.4°C 44.8°F7.1°C 80% 3.0 mph WSW4.8 kmh WSW 5.2 mph8.4 kmh 30.42 in1030.1 mb 0.00 in0.0 mm 0.00 in0.0 mm 0.00 in0.0 mm
09:40 AM 51.3°F10.7°C 45.0°F7.2°C 79% 3.0 mph WSW4.8 kmh WSW 5.2 mph8.4 kmh 30.42 in1030.1 mb 0.00 in0.0 mm 0.00 in0.0 mm 0.00 in0.0 mm
09:45 AM 51.6°F10.9°C 45.3°F7.4°C 79% 4.4 mph SW7.1 kmh SW 5.7 mph9.2 kmh 30.39 in1029.1 mb 0.00 in0.0 mm 0.00 in0.0 mm 0.00 in0.0 mm
09:50 AM 52.0°F11.1°C 45.3°F7.4°C 78% 4.1 mph SW6.6 kmh SW 5.7 mph9.2 kmh 30.39 in1029.1 mb 0.00 in0.0 mm 0.00 in0.0 mm 0.00 in0.0 mm
09:55 AM 52.3°F11.3°C 45.3°F7.4°C 77% 1.4 mph SW2.3 kmh SW 4.4 mph7.1 kmh 30.39 in1029.1 mb 0.00 in0.0 mm 0.00 in0.0 mm 0.00 in0.0 mm
10:00 AM 52.7°F11.5°C 45.7°F7.6°C 77% 3.3 mph SW5.3 kmh SW 4.1 mph6.6 kmh 30.39 in1029.1 mb 0.00 in0.0 mm 0.00 in0.0 mm 0.00 in0.0 mm
10:05 AM 53.1°F11.7°C 45.7°F7.6°C 76% 1.6 mph WSW2.6 kmh WSW 4.4 mph7.1 kmh 30.39 in1029.1 mb 0.00 in0.0 mm 0.00 in0.0 mm 0.00 in0.0 mm
10:10 AM 53.2°F11.8°C 45.5°F7.5°C 75% 4.4 mph WNW7.1 kmh WNW 6.5 mph10.5 kmh 30.39 in1029.1 mb 0.00 in0.0 mm 0.00 in0.0 mm 0.00 in0.0 mm
10:15 AM 53.4°F11.9°C 45.7°F7.6°C 75% 2.5 mph WSW4.0 kmh WSW 6.5 mph10.5 kmh 30.39 in1029.1 mb 0.00 in0.0 mm 0.00 in0.0 mm 0.00 in0.0 mm
10:20 AM 53.8°F12.1°C 46.0°F7.8°C 75% 3.5 mph WSW5.6 kmh WSW 4.9 mph7.9 kmh 30.39 in1029.1 mb 0.00 in0.0 mm 0.00 in0.0 mm 0.00 in0.0 mm
10:25 AM 54.1°F12.3°C 46.0°F7.8°C 74% 4.6 mph W7.4 kmh W 6.0 mph9.7 kmh 30.39 in1029.1 mb 0.00 in0.0 mm 0.00 in0.0 mm 0.00 in0.0 mm
10:30 AM 54.3°F12.4°C 45.8°F7.7°C 73% 6.5 mph WNW10.5 kmh WNW 6.5 mph10.5 kmh 30.39 in1029.1 mb 0.00 in0.0 mm 0.00 in0.0 mm 0.00 in0.0 mm
10:35 AM 54.7°F12.6°C 46.2°F7.9°C 73% 4.4 mph W7.1 kmh W 7.4 mph11.9 kmh 30.39 in1029.1 mb 0.00 in0.0 mm 0.00 in0.0 mm 0.00 in0.0 mm
10:40 AM 55.0°F12.8°C 46.2°F7.9°C 72% 3.5 mph W5.6 kmh W 7.4 mph11.9 kmh 30.39 in1029.1 mb 0.00 in0.0 mm 0.00 in0.0 mm 0.00 in0.0 mm
10:45 AM 55.2°F12.9°C 46.3°F7.9°C 72% 1.6 mph WNW2.6 kmh WNW 7.9 mph12.7 kmh 30.39 in1029.1 mb 0.00 in0.0 mm 0.00 in0.0 mm 0.00 in0.0 mm
10:50 AM 55.8°F13.2°C 46.9°F8.3°C 72% 3.0 mph NNW4.8 kmh NNW 7.9 mph12.7 kmh 30.39 in1029.1 mb 0.00 in0.0 mm 0.00 in0.0 mm 0.00 in0.0 mm
10:55 AM 55.9°F13.3°C 47.0°F8.3°C 72% 7.6 mph NNW12.2 kmh NNW 9.0 mph14.5 kmh 30.39 in1029.1 mb 0.00 in0.0 mm 0.00 in0.0 mm 0.00 in0.0 mm
11:00 AM 56.3°F13.5°C 47.0°F8.3°C 71% 3.0 mph NW4.8 kmh NW 9.0 mph14.5 kmh 30.39 in1029.1 mb 0.00 in0.0 mm 0.00 in0.0 mm 0.00 in0.0 mm
11:05 AM 56.7°F13.7°C 47.4°F8.6°C 71% 3.5 mph NW5.6 kmh NW 9.0 mph14.5 kmh 30.39 in1029.1 mb 0.00 in0.0 mm 0.00 in0.0 mm 0.00 in0.0 mm
11:10 AM 57.0°F13.9°C 47.7°F8.7°C 71% 3.8 mph NW6.1 kmh NW 9.0 mph14.5 kmh 30.39 in1029.1 mb 0.00 in0.0 mm 0.00 in0.0 mm 0.00 in0.0 mm
11:15 AM 57.4°F14.1°C 48.1°F8.9°C 71% 3.8 mph WNW6.1 kmh WNW 9.0 mph14.5 kmh 30.39 in1029.1 mb 0.00 in0.0 mm 0.00 in0.0 mm 0.00 in0.0 mm
11:20 AM 57.7°F14.3°C 48.0°F8.9°C 70% 4.1 mph NW6.6 kmh NW 6.5 mph10.5 kmh 30.39 in1029.1 mb 0.00 in0.0 mm 0.00 in0.0 mm 0.00 in0.0 mm
11:25 AM 57.9°F14.4°C 47.8°F8.8°C 69% 8.2 mph NNW13.2 kmh NNW 8.2 mph13.2 kmh 30.39 in1029.1 mb 0.00 in0.0 mm 0.00 in0.0 mm 0.00 in0.0 mm
11:30 AM 57.9°F14.4°C 46.2°F7.9°C 65% 9.8 mph NNW15.8 kmh NNW 13.6 mph21.9 kmh 30.39 in1029.1 mb 0.00 in0.0 mm 0.00 in0.0 mm 0.00 in0.0 mm
11:35 AM 58.1°F14.5°C 46.4°F8.0°C 65% 4.9 mph NW7.9 kmh NW 13.6 mph21.9 kmh 30.39 in1029.1 mb 0.00 in0.0 mm 0.00 in0.0 mm 0.00 in0.0 mm
11:40 AM 58.3°F14.6°C 46.6°F8.1°C 65% 7.4 mph NW11.9 kmh NW 11.2 mph18.0 kmh 30.39 in1029.1 mb 0.00 in0.0 mm 0.00 in0.0 mm 0.00 in0.0 mm
11:45 AM 58.5°F14.7°C 46.7°F8.2°C 65% 6.0 mph NW9.7 kmh NW 11.2 mph18.0 kmh 30.39 in1029.1 mb 0.00 in0.0 mm 0.00 in0.0 mm 0.00 in0.0 mm
11:50 AM 58.6°F14.8°C 46.9°F8.3°C 65% 3.5 mph N5.6 kmh N 8.5 mph13.7 kmh 30.39 in1029.1 mb 0.00 in0.0 mm 0.00 in0.0 mm 0.00 in0.0 mm
11:55 AM 58.8°F14.9°C 47.1°F8.4°C 65% 1.9 mph NW3.1 kmh NW 8.5 mph13.7 kmh 30.39 in1029.1 mb 0.00 in0.0 mm 0.00 in0.0 mm 0.00 in0.0 mm
12:00 PM 59.0°F15.0°C 46.4°F8.0°C 63% 6.5 mph NW10.5 kmh NW 9.6 mph15.4 kmh 30.39 in1029.1 mb 0.00 in0.0 mm 0.00 in0.0 mm 0.00 in0.0 mm
12:05 PM 59.4°F15.2°C 47.2°F8.4°C 64% 9.0 mph NW14.5 kmh NW 9.8 mph15.8 kmh 30.39 in1029.1 mb 0.00 in0.0 mm 0.00 in0.0 mm 0.00 in0.0 mm
12:10 PM 59.4°F15.2°C 46.3°F7.9°C 62% 4.1 mph NW6.6 kmh NW 9.8 mph15.8 kmh 30.39 in1029.1 mb 0.00 in0.0 mm 0.00 in0.0 mm 0.00 in0.0 mm
12:15 PM 59.5°F15.3°C 47.3°F8.5°C 64% 6.8 mph WNW10.9 kmh WNW 9.0 mph14.5 kmh 30.39 in1029.1 mb 0.00 in0.0 mm 0.00 in0.0 mm 0.00 in0.0 mm
12:20 PM 60.1°F15.6°C 47.9°F8.8°C 64% 6.0 mph NW9.7 kmh NW 6.8 mph10.9 kmh 30.39 in1029.1 mb 0.00 in0.0 mm 0.00 in0.0 mm 0.00 in0.0 mm
12:25 PM 60.1°F15.6°C 47.4°F8.6°C 63% 3.8 mph NNW6.1 kmh NNW 6.8 mph10.9 kmh 30.39 in1029.1 mb 0.00 in0.0 mm 0.00 in0.0 mm 0.00 in0.0 mm
12:30 PM 60.1°F15.6°C 47.0°F8.3°C 62% 3.5 mph N5.6 kmh N 9.3 mph15.0 kmh 30.39 in1029.1 mb 0.00 in0.0 mm 0.00 in0.0 mm 0.00 in0.0 mm
12:35 PM 60.1°F15.6°C 47.0°F8.3°C 62% 3.3 mph N5.3 kmh N 10.6 mph17.1 kmh 30.39 in1029.1 mb 0.00 in0.0 mm 0.00 in0.0 mm 0.00 in0.0 mm
12:40 PM 60.1°F15.6°C 47.4°F8.6°C 63% 3.5 mph N5.6 kmh N 10.6 mph17.1 kmh 30.39 in1029.1 mb 0.00 in0.0 mm 0.00 in0.0 mm 0.00 in0.0 mm
12:45 PM 60.1°F15.6°C 47.0°F8.3°C 62% 12.0 mph NW19.3 kmh NW 12.3 mph19.8 kmh 30.36 in1028.1 mb 0.00 in0.0 mm 0.00 in0.0 mm 0.00 in0.0 mm
12:50 PM 60.3°F15.7°C 46.3°F7.9°C 60% 10.4 mph NW16.7 kmh NW 12.3 mph19.8 kmh 30.36 in1028.1 mb 0.00 in0.0 mm 0.00 in0.0 mm 0.00 in0.0 mm
12:55 PM 60.4°F15.8°C 46.0°F7.8°C 59% 3.8 mph NW6.1 kmh NW 13.4 mph21.6 kmh 30.36 in1028.1 mb 0.00 in0.0 mm 0.00 in0.0 mm 0.00 in0.0 mm
01:00 PM 60.3°F15.7°C 46.8°F8.2°C 61% 6.0 mph NW9.7 kmh NW 13.4 mph21.6 kmh 30.36 in1028.1 mb 0.00 in0.0 mm 0.00 in0.0 mm 0.00 in0.0 mm
01:05 PM 60.1°F15.6°C 46.6°F8.1°C 61% 4.6 mph NW7.4 kmh NW 8.7 mph14.0 kmh 30.36 in1028.1 mb 0.00 in0.0 mm 0.00 in0.0 mm 0.00 in0.0 mm
01:10 PM 59.7°F15.4°C 46.2°F7.9°C 61% 9.3 mph NW15.0 kmh NW 10.6 mph17.1 kmh 30.36 in1028.1 mb 0.00 in0.0 mm 0.00 in0.0 mm 0.00 in0.0 mm
01:15 PM 59.5°F15.3°C 46.1°F7.8°C 61% 3.5 mph NW5.6 kmh NW 10.6 mph17.1 kmh 30.39 in1029.1 mb 0.00 in0.0 mm 0.00 in0.0 mm 0.00 in0.0 mm
01:20 PM 59.5°F15.3°C 46.5°F8.1°C 62% 1.6 mph WNW2.6 kmh WNW 7.4 mph11.9 kmh 30.39 in1029.1 mb 0.00 in0.0 mm 0.00 in0.0 mm 0.00 in0.0 mm
01:25 PM 59.5°F15.3°C 46.5°F8.1°C 62% 4.1 mph WNW6.6 kmh WNW 5.7 mph9.2 kmh 30.39 in1029.1 mb 0.00 in0.0 mm 0.00 in0.0 mm 0.00 in0.0 mm
01:30 PM 59.5°F15.3°C 46.5°F8.1°C 62% 5.2 mph NNW8.4 kmh NNW 8.7 mph14.0 kmh 30.39 in1029.1 mb 0.00 in0.0 mm 0.00 in0.0 mm 0.00 in0.0 mm
01:35 PM 59.4°F15.2°C 45.9°F7.7°C 61% 4.4 mph NW7.1 kmh NW 8.7 mph14.0 kmh 30.39 in1029.1 mb 0.00 in0.0 mm 0.00 in0.0 mm 0.00 in0.0 mm
01:40 PM 59.2°F15.1°C 45.7°F7.6°C 61% 4.9 mph NW7.9 kmh NW 14.7 mph23.7 kmh 30.39 in1029.1 mb 0.00 in0.0 mm 0.00 in0.0 mm 0.00 in0.0 mm
01:45 PM 59.0°F15.0°C 45.6°F7.6°C 61% 9.3 mph NW15.0 kmh NW 14.7 mph23.7 kmh 30.36 in1028.1 mb 0.00 in0.0 mm 0.00 in0.0 mm 0.00 in0.0 mm
01:50 PM 58.8°F14.9°C 45.8°F7.7°C 62% 9.8 mph NNW15.8 kmh NNW 10.6 mph17.1 kmh 30.36 in1028.1 mb 0.00 in0.0 mm 0.00 in0.0 mm 0.00 in0.0 mm
01:55 PM 58.8°F14.9°C 45.8°F7.7°C 62% 4.1 mph NNW6.6 kmh NNW 10.6 mph17.1 kmh 30.36 in1028.1 mb 0.00 in0.0 mm 0.00 in0.0 mm 0.00 in0.0 mm
02:00 PM 58.8°F14.9°C 45.8°F7.7°C 62% 9.3 mph NNW15.0 kmh NNW 9.8 mph15.8 kmh 30.39 in1029.1 mb 0.00 in0.0 mm 0.00 in0.0 mm 0.00 in0.0 mm
02:05 PM 59.0°F15.0°C 46.0°F7.8°C 62% 4.6 mph NW7.4 kmh NW 9.3 mph15.0 kmh 30.39 in1029.1 mb 0.00 in0.0 mm 0.00 in0.0 mm 0.00 in0.0 mm
02:10 PM 59.2°F15.1°C 46.6°F8.1°C 63% 4.6 mph NW7.4 kmh NW 9.3 mph15.0 kmh 30.39 in1029.1 mb 0.00 in0.0 mm 0.00 in0.0 mm 0.00 in0.0 mm
02:15 PM 59.4°F15.2°C 46.8°F8.2°C 63% 1.1 mph NW1.8 kmh NW 7.6 mph12.2 kmh 30.36 in1028.1 mb 0.00 in0.0 mm 0.00 in0.0 mm 0.00 in0.0 mm
02:20 PM 59.5°F15.3°C 46.9°F8.3°C 63% 3.8 mph NNW6.1 kmh NNW 7.1 mph11.4 kmh 30.36 in1028.1 mb 0.00 in0.0 mm 0.00 in0.0 mm 0.00 in0.0 mm
02:25 PM 59.4°F15.2°C 46.8°F8.2°C 63% 7.1 mph NNW11.4 kmh NNW 7.4 mph11.9 kmh 30.36 in1028.1 mb 0.00 in0.0 mm 0.00 in0.0 mm 0.00 in0.0 mm
02:30 PM 59.2°F15.1°C 46.6°F8.1°C 63% 7.6 mph NW12.2 kmh NW 7.6 mph12.2 kmh 30.36 in1028.1 mb 0.00 in0.0 mm 0.00 in0.0 mm 0.00 in0.0 mm
02:35 PM 59.2°F15.1°C 47.0°F8.3°C 64% 4.9 mph NW7.9 kmh NW 9.6 mph15.4 kmh 30.36 in1028.1 mb 0.00 in0.0 mm 0.00 in0.0 mm 0.00 in0.0 mm
02:40 PM 59.0°F15.0°C 47.2°F8.4°C 65% 6.8 mph NNW10.9 kmh NNW 9.6 mph15.4 kmh 30.36 in1028.1 mb 0.00 in0.0 mm 0.00 in0.0 mm 0.00 in0.0 mm
02:45 PM 58.8°F14.9°C 47.1°F8.4°C 65% 3.3 mph NNW5.3 kmh NNW 6.8 mph10.9 kmh 30.36 in1028.1 mb 0.00 in0.0 mm 0.00 in0.0 mm 0.00 in0.0 mm
02:50 PM 58.8°F14.9°C 47.1°F8.4°C 65% 4.6 mph NNW7.4 kmh NNW 6.8 mph10.9 kmh 30.36 in1028.1 mb 0.00 in0.0 mm 0.00 in0.0 mm 0.00 in0.0 mm
02:55 PM 58.6°F14.8°C 46.9°F8.3°C 65% 6.8 mph NNW10.9 kmh NNW 7.6 mph12.2 kmh 30.36 in1028.1 mb 0.00 in0.0 mm 0.00 in0.0 mm 0.00 in0.0 mm
03:00 PM 58.6°F14.8°C 47.3°F8.5°C 66% 3.3 mph NNW5.3 kmh NNW 7.6 mph12.2 kmh 30.36 in1028.1 mb 0.00 in0.0 mm 0.00 in0.0 mm 0.00 in0.0 mm
03:05 PM 58.6°F14.8°C 46.9°F8.3°C 65% 4.9 mph NNW7.9 kmh NNW 6.5 mph10.5 kmh 30.36 in1028.1 mb 0.00 in0.0 mm 0.00 in0.0 mm 0.00 in0.0 mm
03:10 PM 58.6°F14.8°C 47.3°F8.5°C 66% 4.1 mph NW6.6 kmh NW 10.4 mph16.7 kmh 30.36 in1028.1 mb 0.00 in0.0 mm 0.00 in0.0 mm 0.00 in0.0 mm
03:15 PM 58.6°F14.8°C 47.3°F8.5°C 66% 4.9 mph NW7.9 kmh NW 10.4 mph16.7 kmh 30.36 in1028.1 mb 0.00 in0.0 mm 0.00 in0.0 mm 0.00 in0.0 mm
03:20 PM 58.5°F14.7°C 47.1°F8.4°C 66% 4.9 mph NNW7.9 kmh NNW 7.4 mph11.9 kmh 30.36 in1028.1 mb 0.00 in0.0 mm 0.00 in0.0 mm 0.00 in0.0 mm
03:25 PM 58.3°F14.6°C 47.0°F8.3°C 66% 1.9 mph NW3.1 kmh NW 7.4 mph11.9 kmh 30.36 in1028.1 mb 0.00 in0.0 mm 0.00 in0.0 mm 0.00 in0.0 mm
03:30 PM 58.1°F14.5°C 46.8°F8.2°C 66% 7.1 mph NW11.4 kmh NW 7.1 mph11.4 kmh 30.36 in1028.1 mb 0.00 in0.0 mm 0.00 in0.0 mm 0.00 in0.0 mm
03:35 PM 58.1°F14.5°C 47.2°F8.4°C 67% 2.5 mph NW4.0 kmh NW 7.6 mph12.2 kmh 30.36 in1028.1 mb 0.00 in0.0 mm 0.00 in0.0 mm 0.00 in0.0 mm
03:40 PM 57.9°F14.4°C 47.0°F8.3°C 67% 1.1 mph W1.8 kmh W 7.6 mph12.2 kmh 30.36 in1028.1 mb 0.00 in0.0 mm 0.00 in0.0 mm 0.00 in0.0 mm
03:45 PM 57.7°F14.3°C 46.9°F8.3°C 67% 3.3 mph WSW5.3 kmh WSW 6.5 mph10.5 kmh 30.36 in1028.1 mb 0.00 in0.0 mm 0.00 in0.0 mm 0.00 in0.0 mm
03:50 PM 57.6°F14.2°C 47.1°F8.4°C 68% 3.0 mph WSW4.8 kmh WSW 4.1 mph6.6 kmh 30.36 in1028.1 mb 0.00 in0.0 mm 0.00 in0.0 mm 0.00 in0.0 mm
03:55 PM 57.6°F14.2°C 47.1°F8.4°C 68% 3.3 mph N5.3 kmh N 4.9 mph7.9 kmh 30.36 in1028.1 mb 0.00 in0.0 mm 0.00 in0.0 mm 0.00 in0.0 mm
04:00 PM 57.4°F14.1°C 46.9°F8.3°C 68% 1.9 mph N3.1 kmh N 6.0 mph9.7 kmh 30.36 in1028.1 mb 0.00 in0.0 mm 0.00 in0.0 mm 0.00 in0.0 mm
04:05 PM 57.4°F14.1°C 46.9°F8.3°C 68% Calm Calm 6.0 mph9.7 kmh 30.36 in1028.1 mb 0.00 in0.0 mm 0.00 in0.0 mm 0.00 in0.0 mm
04:10 PM 57.4°F14.1°C 46.9°F8.3°C 68% 3.8 mph N6.1 kmh N 9.0 mph14.5 kmh 30.36 in1028.1 mb 0.00 in0.0 mm 0.00 in0.0 mm 0.00 in0.0 mm
04:15 PM 57.2°F14.0°C 46.7°F8.2°C 68% 1.4 mph N2.3 kmh N 9.0 mph14.5 kmh 30.36 in1028.1 mb 0.00 in0.0 mm 0.00 in0.0 mm 0.00 in0.0 mm
04:20 PM 57.0°F13.9°C 46.9°F8.3°C 69% 2.5 mph N4.0 kmh N 7.4 mph11.9 kmh 30.36 in1028.1 mb 0.00 in0.0 mm 0.00 in0.0 mm 0.00 in0.0 mm
04:25 PM 57.0°F13.9°C 46.9°F8.3°C 69% 1.9 mph NNW3.1 kmh NNW 7.4 mph11.9 kmh 30.36 in1028.1 mb 0.00 in0.0 mm 0.00 in0.0 mm 0.00 in0.0 mm
04:30 PM 56.8°F13.8°C 46.8°F8.2°C 69% 1.1 mph NW1.8 kmh NW 7.1 mph11.4 kmh 30.36 in1028.1 mb 0.00 in0.0 mm 0.00 in0.0 mm 0.00 in0.0 mm
04:35 PM 56.8°F13.8°C 46.8°F8.2°C 69% 1.6 mph WNW2.6 kmh WNW 7.4 mph11.9 kmh 30.36 in1028.1 mb 0.00 in0.0 mm 0.00 in0.0 mm 0.00 in0.0 mm
04:40 PM 56.7°F13.7°C 47.0°F8.3°C 70% 3.5 mph NW5.6 kmh NW 7.4 mph11.9 kmh 30.36 in1028.1 mb 0.00 in0.0 mm 0.00 in0.0 mm 0.00 in0.0 mm
04:45 PM 56.5°F13.6°C 46.8°F8.2°C 70% Calm Calm 4.1 mph6.6 kmh 30.36 in1028.1 mb 0.00 in0.0 mm 0.00 in0.0 mm 0.00 in0.0 mm
04:50 PM 56.3°F13.5°C 46.6°F8.1°C 70% Calm Calm 3.5 mph5.6 kmh 30.36 in1028.1 mb 0.00 in0.0 mm 0.00 in0.0 mm 0.00 in0.0 mm
04:55 PM 56.1°F13.4°C 46.5°F8.1°C 70% 1.1 mph NW1.8 kmh NW 3.0 mph4.8 kmh 30.36 in1028.1 mb 0.00 in0.0 mm 0.00 in0.0 mm 0.00 in0.0 mm
05:00 PM 55.8°F13.2°C 46.1°F7.8°C 70% Calm Calm 3.0 mph4.8 kmh 30.39 in1029.1 mb 0.00 in0.0 mm 0.00 in0.0 mm 0.00 in0.0 mm
05:05 PM 55.6°F13.1°C 46.3°F7.9°C 71% 3.5 mph SW5.6 kmh SW 3.5 mph5.6 kmh 30.39 in1029.1 mb 0.00 in0.0 mm 0.00 in0.0 mm 0.00 in0.0 mm
05:10 PM 55.6°F13.1°C 46.3°F7.9°C 71% 6.5 mph WNW10.5 kmh WNW 6.5 mph10.5 kmh 30.39 in1029.1 mb 0.00 in0.0 mm 0.00 in0.0 mm 0.00 in0.0 mm
05:15 PM 55.6°F13.1°C 46.3°F7.9°C 71% 3.3 mph NW5.3 kmh NW 6.5 mph10.5 kmh 30.36 in1028.1 mb 0.00 in0.0 mm 0.00 in0.0 mm 0.00 in0.0 mm
05:20 PM 55.6°F13.1°C 46.7°F8.2°C 72% 2.7 mph NW4.3 kmh NW 4.4 mph7.1 kmh 30.36 in1028.1 mb 0.00 in0.0 mm 0.00 in0.0 mm 0.00 in0.0 mm
05:25 PM 55.6°F13.1°C 46.7°F8.2°C 72% 3.5 mph E5.6 kmh E 5.7 mph9.2 kmh 30.36 in1028.1 mb 0.00 in0.0 mm 0.00 in0.0 mm 0.00 in0.0 mm
05:30 PM 55.6°F13.1°C 46.7°F8.2°C 72% 4.9 mph WNW7.9 kmh WNW 5.7 mph9.2 kmh 30.36 in1028.1 mb 0.00 in0.0 mm 0.00 in0.0 mm 0.00 in0.0 mm
05:35 PM 55.6°F13.1°C 46.7°F8.2°C 72% 7.6 mph NW12.2 kmh NW 7.6 mph12.2 kmh 30.36 in1028.1 mb 0.00 in0.0 mm 0.00 in0.0 mm 0.00 in0.0 mm
05:40 PM 55.6°F13.1°C 46.7°F8.2°C 72% 1.9 mph NW3.1 kmh NW 7.6 mph12.2 kmh 30.36 in1028.1 mb 0.00 in0.0 mm 0.00 in0.0 mm 0.00 in0.0 mm
05:45 PM 55.6°F13.1°C 46.7°F8.2°C 72% 2.5 mph NW4.0 kmh NW 7.9 mph12.7 kmh 30.39 in1029.1 mb 0.00 in0.0 mm 0.00 in0.0 mm 0.00 in0.0 mm
05:50 PM 55.4°F13.0°C 46.5°F8.1°C 72% 1.6 mph NW2.6 kmh NW 7.9 mph12.7 kmh 30.39 in1029.1 mb 0.00 in0.0 mm 0.00 in0.0 mm 0.00 in0.0 mm
05:55 PM 55.4°F13.0°C 46.5°F8.1°C 72% 1.9 mph N3.1 kmh N 6.5 mph10.5 kmh 30.39 in1029.1 mb 0.00 in0.0 mm 0.00 in0.0 mm 0.00 in0.0 mm
06:00 PM 55.4°F13.0°C 46.5°F8.1°C 72% Calm Calm 6.5 mph10.5 kmh 30.39 in1029.1 mb 0.00 in0.0 mm 0.00 in0.0 mm 0.00 in0.0 mm
06:05 PM 55.2°F12.9°C 46.7°F8.2°C 73% 2.5 mph WNW4.0 kmh WNW 4.9 mph7.9 kmh 30.39 in1029.1 mb 0.00 in0.0 mm 0.00 in0.0 mm 0.00 in0.0 mm
06:10 PM 55.2°F12.9°C 46.7°F8.2°C 73% 3.8 mph SW6.1 kmh SW 4.9 mph7.9 kmh 30.39 in1029.1 mb 0.00 in0.0 mm 0.00 in0.0 mm 0.00 in0.0 mm
06:15 PM 55.0°F12.8°C 46.5°F8.1°C 73% 5.2 mph NNW8.4 kmh NNW 5.2 mph8.4 kmh 30.39 in1029.1 mb 0.00 in0.0 mm 0.00 in0.0 mm 0.00 in0.0 mm
06:20 PM 55.0°F12.8°C 46.9°F8.3°C 74% 1.9 mph NW3.1 kmh NW 5.2 mph8.4 kmh 30.39 in1029.1 mb 0.00 in0.0 mm 0.00 in0.0 mm 0.00 in0.0 mm
06:25 PM 55.0°F12.8°C 46.9°F8.3°C 74% 3.0 mph W4.8 kmh W 4.6 mph7.4 kmh 30.39 in1029.1 mb 0.00 in0.0 mm 0.00 in0.0 mm 0.00 in0.0 mm
06:30 PM 55.0°F12.8°C 46.9°F8.3°C 74% 3.8 mph NW6.1 kmh NW 6.8 mph10.9 kmh 30.39 in1029.1 mb 0.00 in0.0 mm 0.00 in0.0 mm 0.00 in0.0 mm
06:35 PM 55.0°F12.8°C 46.9°F8.3°C 74% 4.1 mph NNW6.6 kmh NNW 6.8 mph10.9 kmh 30.39 in1029.1 mb 0.00 in0.0 mm 0.00 in0.0 mm 0.00 in0.0 mm
06:40 PM 55.0°F12.8°C 47.3°F8.5°C 75% 1.4 mph NW2.3 kmh NW 4.9 mph7.9 kmh 30.39 in1029.1 mb 0.00 in0.0 mm 0.00 in0.0 mm 0.00 in0.0 mm
06:45 PM 54.9°F12.7°C 47.1°F8.4°C 75% 1.1 mph WSW1.8 kmh WSW 4.9 mph7.9 kmh 30.39 in1029.1 mb 0.00 in0.0 mm 0.00 in0.0 mm 0.00 in0.0 mm
06:50 PM 54.9°F12.7°C 47.1°F8.4°C 75% 5.7 mph NNW9.2 kmh NNW 6.8 mph10.9 kmh 30.39 in1029.1 mb 0.00 in0.0 mm 0.00 in0.0 mm 0.00 in0.0 mm
06:55 PM 54.9°F12.7°C 47.1°F8.4°C 75% 1.9 mph NW3.1 kmh NW 6.8 mph10.9 kmh 30.39 in1029.1 mb 0.00 in0.0 mm 0.00 in0.0 mm 0.00 in0.0 mm
07:00 PM 54.9°F12.7°C 47.1°F8.4°C 75% 3.8 mph NW6.1 kmh NW 5.7 mph9.2 kmh 30.39 in1029.1 mb 0.00 in0.0 mm 0.00 in0.0 mm 0.00 in0.0 mm
07:05 PM 54.7°F12.6°C 46.9°F8.3°C 75% 1.9 mph NW3.1 kmh NW 3.8 mph6.1 kmh 30.39 in1029.1 mb 0.00 in0.0 mm 0.00 in0.0 mm 0.00 in0.0 mm
07:10 PM 54.7°F12.6°C 47.3°F8.5°C 76% 3.8 mph N6.1 kmh N 3.8 mph6.1 kmh 30.39 in1029.1 mb 0.00 in0.0 mm 0.00 in0.0 mm 0.00 in0.0 mm
07:15 PM 54.7°F12.6°C 47.6°F8.7°C 77% 1.1 mph NW1.8 kmh NW 5.2 mph8.4 kmh 30.39 in1029.1 mb 0.00 in0.0 mm 0.00 in0.0 mm 0.00 in0.0 mm
07:20 PM 54.9°F12.7°C 47.8°F8.8°C 77% 7.6 mph NW12.2 kmh NW 7.6 mph12.2 kmh 30.39 in1029.1 mb 0.00 in0.0 mm 0.00 in0.0 mm 0.00 in0.0 mm
07:25 PM 54.9°F12.7°C 47.8°F8.8°C 77% 5.7 mph NW9.2 kmh NW 7.6 mph12.2 kmh 30.39 in1029.1 mb 0.00 in0.0 mm 0.00 in0.0 mm 0.00 in0.0 mm
07:30 PM 54.9°F12.7°C 47.8°F8.8°C 77% 1.6 mph NW2.6 kmh NW 7.6 mph12.2 kmh 30.39 in1029.1 mb 0.00 in0.0 mm 0.00 in0.0 mm 0.00 in0.0 mm
07:35 PM 54.9°F12.7°C 48.1°F8.9°C 78% 2.5 mph N4.0 kmh N 5.7 mph9.2 kmh 30.39 in1029.1 mb 0.00 in0.0 mm 0.00 in0.0 mm 0.00 in0.0 mm
07:40 PM 54.9°F12.7°C 48.1°F8.9°C 78% 1.9 mph NW3.1 kmh NW 5.7 mph9.2 kmh 30.39 in1029.1 mb 0.00 in0.0 mm 0.00 in0.0 mm 0.00 in0.0 mm
07:45 PM 54.9°F12.7°C 48.1°F8.9°C 78% 6.5 mph NW10.5 kmh NW 6.5 mph10.5 kmh 30.39 in1029.1 mb 0.00 in0.0 mm 0.00 in0.0 mm 0.00 in0.0 mm
07:50 PM 54.9°F12.7°C 48.5°F9.2°C 79% 3.8 mph NW6.1 kmh NW 10.6 mph17.1 kmh 30.39 in1029.1 mb 0.00 in0.0 mm 0.00 in0.0 mm 0.00 in0.0 mm
07:55 PM 54.9°F12.7°C 48.5°F9.2°C 79% 4.4 mph N7.1 kmh N 10.6 mph17.1 kmh 30.39 in1029.1 mb 0.00 in0.0 mm 0.00 in0.0 mm 0.00 in0.0 mm
08:00 PM 54.9°F12.7°C 48.5°F9.2°C 79% 1.9 mph NNE3.1 kmh NNE 7.6 mph12.2 kmh 30.39 in1029.1 mb 0.00 in0.0 mm 0.00 in0.0 mm 0.00 in0.0 mm
08:05 PM 55.0°F12.8°C 48.6°F9.2°C 79% 1.9 mph N3.1 kmh N 7.6 mph12.2 kmh 30.39 in1029.1 mb 0.00 in0.0 mm 0.00 in0.0 mm 0.00 in0.0 mm
08:10 PM 55.0°F12.8°C 48.6°F9.2°C 79% 3.8 mph N6.1 kmh N 6.8 mph10.9 kmh 30.39 in1029.1 mb 0.00 in0.0 mm 0.00 in0.0 mm 0.00 in0.0 mm
08:15 PM 55.0°F12.8°C 48.6°F9.2°C 79% 1.9 mph N3.1 kmh N 6.8 mph10.9 kmh 30.39 in1029.1 mb 0.00 in0.0 mm 0.00 in0.0 mm 0.00 in0.0 mm
08:20 PM 55.0°F12.8°C 48.6°F9.2°C 79% 4.1 mph WNW6.6 kmh WNW 5.7 mph9.2 kmh 30.39 in1029.1 mb 0.00 in0.0 mm 0.00 in0.0 mm 0.00 in0.0 mm
08:25 PM 54.9°F12.7°C 48.5°F9.2°C 79% 3.8 mph W6.1 kmh W 5.7 mph9.2 kmh 30.39 in1029.1 mb 0.00 in0.0 mm 0.00 in0.0 mm 0.00 in0.0 mm
08:30 PM 54.9°F12.7°C 48.5°F9.2°C 79% 5.2 mph NW8.4 kmh NW 5.2 mph8.4 kmh 30.39 in1029.1 mb 0.00 in0.0 mm 0.00 in0.0 mm 0.00 in0.0 mm
08:35 PM 54.9°F12.7°C 48.8°F9.3°C 80% 3.8 mph NNW6.1 kmh NNW 6.0 mph9.7 kmh 30.39 in1029.1 mb 0.00 in0.0 mm 0.00 in0.0 mm 0.00 in0.0 mm
08:40 PM 54.9°F12.7°C 48.8°F9.3°C 80% 4.9 mph NNW7.9 kmh NNW 6.0 mph9.7 kmh 30.39 in1029.1 mb 0.00 in0.0 mm 0.00 in0.0 mm 0.00 in0.0 mm
08:45 PM 54.9°F12.7°C 48.8°F9.3°C 80% 3.8 mph N6.1 kmh N 5.2 mph8.4 kmh 30.39 in1029.1 mb 0.00 in0.0 mm 0.00 in0.0 mm 0.00 in0.0 mm
08:50 PM 55.0°F12.8°C 49.0°F9.4°C 80% 6.5 mph NNW10.5 kmh NNW 6.5 mph10.5 kmh 30.39 in1029.1 mb 0.00 in0.0 mm 0.00 in0.0 mm 0.00 in0.0 mm
08:55 PM 55.0°F12.8°C 49.0°F9.4°C 80% 4.1 mph WNW6.6 kmh WNW 6.5 mph10.5 kmh 30.39 in1029.1 mb 0.00 in0.0 mm 0.00 in0.0 mm 0.00 in0.0 mm
09:00 PM 55.0°F12.8°C 49.0°F9.4°C 80% 4.6 mph W7.4 kmh W 4.9 mph7.9 kmh 30.39 in1029.1 mb 0.00 in0.0 mm 0.00 in0.0 mm 0.00 in0.0 mm
09:05 PM 55.0°F12.8°C 49.3°F9.6°C 81% 3.8 mph NW6.1 kmh NW 4.9 mph7.9 kmh 30.39 in1029.1 mb 0.00 in0.0 mm 0.00 in0.0 mm 0.00 in0.0 mm
09:10 PM 55.0°F12.8°C 49.3°F9.6°C 81% 4.9 mph NW7.9 kmh NW 4.9 mph7.9 kmh 30.39 in1029.1 mb 0.00 in0.0 mm 0.00 in0.0 mm 0.00 in0.0 mm
09:15 PM 55.0°F12.8°C 49.3°F9.6°C 81% 6.5 mph N10.5 kmh N 6.5 mph10.5 kmh 30.39 in1029.1 mb 0.00 in0.0 mm 0.00 in0.0 mm 0.00 in0.0 mm
09:20 PM 55.0°F12.8°C 49.3°F9.6°C 81% 2.5 mph NNW4.0 kmh NNW 6.5 mph10.5 kmh 30.39 in1029.1 mb 0.00 in0.0 mm 0.00 in0.0 mm 0.00 in0.0 mm
09:25 PM 55.0°F12.8°C 49.3°F9.6°C 81% 3.5 mph NW5.6 kmh NW 6.5 mph10.5 kmh 30.39 in1029.1 mb 0.00 in0.0 mm 0.00 in0.0 mm 0.00 in0.0 mm
09:30 PM 55.0°F12.8°C 49.3°F9.6°C 81% 2.5 mph SSW4.0 kmh SSW 7.1 mph11.4 kmh 30.39 in1029.1 mb 0.00 in0.0 mm 0.00 in0.0 mm 0.00 in0.0 mm
09:35 PM 55.0°F12.8°C 49.3°F9.6°C 81% 1.6 mph S2.6 kmh S 7.1 mph11.4 kmh 30.39 in1029.1 mb 0.00 in0.0 mm 0.00 in0.0 mm 0.00 in0.0 mm
09:40 PM 54.9°F12.7°C 49.1°F9.5°C 81% 2.7 mph WSW4.3 kmh WSW 4.9 mph7.9 kmh 30.39 in1029.1 mb 0.00 in0.0 mm 0.00 in0.0 mm 0.00 in0.0 mm
09:45 PM 54.9°F12.7°C 49.1°F9.5°C 81% 4.6 mph NW7.4 kmh NW 7.1 mph11.4 kmh 30.39 in1029.1 mb 0.00 in0.0 mm 0.00 in0.0 mm 0.00 in0.0 mm
09:50 PM 54.9°F12.7°C 49.1°F9.5°C 81% 3.0 mph NW4.8 kmh NW 7.1 mph11.4 kmh 30.39 in1029.1 mb 0.00 in0.0 mm 0.00 in0.0 mm 0.00 in0.0 mm
09:55 PM 54.7°F12.6°C 49.3°F9.6°C 82% 7.4 mph NW11.9 kmh NW 7.4 mph11.9 kmh 30.39 in1029.1 mb 0.00 in0.0 mm 0.00 in0.0 mm 0.00 in0.0 mm
10:00 PM 54.7°F12.6°C 49.3°F9.6°C 82% 1.9 mph NNW3.1 kmh NNW 7.4 mph11.9 kmh 30.39 in1029.1 mb 0.00 in0.0 mm 0.00 in0.0 mm 0.00 in0.0 mm
10:05 PM 54.7°F12.6°C 49.3°F9.6°C 82% 7.1 mph NNW11.4 kmh NNW 7.4 mph11.9 kmh 30.39 in1029.1 mb 0.00 in0.0 mm 0.00 in0.0 mm 0.00 in0.0 mm
10:10 PM 54.7°F12.6°C 49.3°F9.6°C 82% 5.2 mph NW8.4 kmh NW 7.1 mph11.4 kmh 30.39 in1029.1 mb 0.00 in0.0 mm 0.00 in0.0 mm 0.00 in0.0 mm
10:15 PM 54.7°F12.6°C 49.3°F9.6°C 82% 4.6 mph NW7.4 kmh NW 7.1 mph11.4 kmh 30.36 in1028.1 mb 0.00 in0.0 mm 0.00 in0.0 mm 0.00 in0.0 mm
10:20 PM 54.5°F12.5°C 49.1°F9.5°C 82% 1.1 mph NW1.8 kmh NW 7.1 mph11.4 kmh 30.36 in1028.1 mb 0.00 in0.0 mm 0.00 in0.0 mm 0.00 in0.0 mm
10:25 PM 54.5°F12.5°C 49.1°F9.5°C 82% 3.0 mph NW4.8 kmh NW 8.7 mph14.0 kmh 30.36 in1028.1 mb 0.00 in0.0 mm 0.00 in0.0 mm 0.00 in0.0 mm
10:30 PM 54.5°F12.5°C 49.1°F9.5°C 82% 4.9 mph NW7.9 kmh NW 8.7 mph14.0 kmh 30.39 in1029.1 mb 0.00 in0.0 mm 0.00 in0.0 mm 0.00 in0.0 mm
10:35 PM 54.3°F12.4°C 48.9°F9.4°C 82% 3.3 mph N5.3 kmh N 4.9 mph7.9 kmh 30.39 in1029.1 mb 0.00 in0.0 mm 0.00 in0.0 mm 0.00 in0.0 mm
10:40 PM 54.1°F12.3°C 48.8°F9.3°C 82% 1.9 mph NNW3.1 kmh NNW 3.5 mph5.6 kmh 30.39 in1029.1 mb 0.00 in0.0 mm 0.00 in0.0 mm 0.00 in0.0 mm
10:45 PM 54.1°F12.3°C 48.8°F9.3°C 82% 3.3 mph NW5.3 kmh NW 3.5 mph5.6 kmh 30.39 in1029.1 mb 0.00 in0.0 mm 0.00 in0.0 mm 0.00 in0.0 mm
10:50 PM 54.0°F12.2°C 48.6°F9.2°C 82% 2.5 mph NNW4.0 kmh NNW 3.3 mph5.3 kmh 30.39 in1029.1 mb 0.00 in0.0 mm 0.00 in0.0 mm 0.00 in0.0 mm
10:55 PM 54.0°F12.2°C 48.9°F9.4°C 83% 3.3 mph NNW5.3 kmh NNW 4.6 mph7.4 kmh 30.39 in1029.1 mb 0.00 in0.0 mm 0.00 in0.0 mm 0.00 in0.0 mm
11:00 PM 54.0°F12.2°C 48.9°F9.4°C 83% 3.5 mph N5.6 kmh N 4.9 mph7.9 kmh 30.36 in1028.1 mb 0.00 in0.0 mm 0.00 in0.0 mm 0.00 in0.0 mm
11:05 PM 54.0°F12.2°C 48.9°F9.4°C 83% 4.9 mph N7.9 kmh N 4.9 mph7.9 kmh 30.36 in1028.1 mb 0.00 in0.0 mm 0.00 in0.0 mm 0.00 in0.0 mm
11:10 PM 54.0°F12.2°C 48.9°F9.4°C 83% 3.3 mph N5.3 kmh N 4.9 mph7.9 kmh 30.36 in1028.1 mb 0.00 in0.0 mm 0.00 in0.0 mm 0.00 in0.0 mm
11:15 PM 54.0°F12.2°C 48.9°F9.4°C 83% 6.5 mph NNE10.5 kmh NNE 6.5 mph10.5 kmh 30.36 in1028.1 mb 0.00 in0.0 mm 0.00 in0.0 mm 0.00 in0.0 mm
11:20 PM 53.8°F12.1°C 48.7°F9.3°C 83% 3.3 mph NW5.3 kmh NW 6.5 mph10.5 kmh 30.36 in1028.1 mb 0.00 in0.0 mm 0.00 in0.0 mm 0.00 in0.0 mm
11:25 PM 53.8°F12.1°C 48.7°F9.3°C 83% 6.0 mph WSW9.7 kmh WSW 6.5 mph10.5 kmh 30.36 in1028.1 mb 0.00 in0.0 mm 0.00 in0.0 mm 0.00 in0.0 mm
11:30 PM 53.6°F12.0°C 48.6°F9.2°C 83% 1.6 mph WSW2.6 kmh WSW 6.0 mph9.7 kmh 30.36 in1028.1 mb 0.00 in0.0 mm 0.00 in0.0 mm 0.00 in0.0 mm
11:35 PM 53.6°F12.0°C 48.6°F9.2°C 83% 6.5 mph WNW10.5 kmh WNW 6.5 mph10.5 kmh 30.36 in1028.1 mb 0.00 in0.0 mm 0.00 in0.0 mm 0.00 in0.0 mm
11:40 PM 53.4°F11.9°C 48.7°F9.3°C 84% 3.0 mph WNW4.8 kmh WNW 6.5 mph10.5 kmh 30.36 in1028.1 mb 0.00 in0.0 mm 0.00 in0.0 mm 0.00 in0.0 mm
11:45 PM 53.4°F11.9°C 48.7°F9.3°C 84% 1.6 mph WSW2.6 kmh WSW 4.4 mph7.1 kmh 30.36 in1028.1 mb 0.00 in0.0 mm 0.00 in0.0 mm 0.00 in0.0 mm
11:50 PM 53.4°F11.9°C 48.7°F9.3°C 84% Calm Calm 4.4 mph7.1 kmh 30.36 in1028.1 mb 0.00 in0.0 mm 0.00 in0.0 mm 0.00 in0.0 mm
11:55 PM 53.2°F11.8°C 48.5°F9.2°C 84% 1.6 mph SW2.6 kmh SW 4.9 mph7.9 kmh 30.36 in1028.1 mb 0.00 in0.0 mm 0.00 in0.0 mm 0.00 in0.0 mm